Time;durP1;ratioP1;P1;durP2;ratioP2;P2;SDS_P1;SDS_P2;PMS_P1;PMS_P2;Temp;Humidity;BMP_temperature;BMP_pressure;BME280_temperature;BME280_humidity;BME280_pressure;Samples;Min_cycle;Max_cycle;Signal;HPM_P1;HPM_P2
2022/05/03 00:01:42;;;;;;;8.30;7.57;;;;;;;11.99;88.42;97912.88;4955326;28;20189;-70
2022/05/03 00:04:37;;;;;;;8.00;7.40;;;;;;;12.04;88.65;97907.66;4955323;28;20295;-70
2022/05/03 00:07:14;;;;;;;8.50;7.80;;;;;;;12.06;88.67;97907.41;4955231;28;20265;-70
2022/05/03 00:09:59;;;;;;;8.20;7.53;;;;;;;12.03;89.72;97905.22;4955261;28;20197;-71
2022/05/03 00:12:35;;;;;;;9.00;8.20;;;;;;;12.04;88.95;97910.31;4955109;29;20230;-70
2022/05/03 00:15:04;;;;;;;13.03;7.93;;;;;;;12.06;88.44;97904.72;4955200;28;20215;-70
2022/05/03 00:17:31;;;;;;;8.20;7.50;;;;;;;12.07;88.23;97893.84;4955075;28;20238;-70
2022/05/03 00:19:59;;;;;;;8.57;7.87;;;;;;;12.08;88.59;97900.00;4955097;28;20238;-70
2022/05/03 00:22:26;;;;;;;8.10;7.50;;;;;;;11.99;89.73;97898.72;4955077;28;20203;-70
2022/05/03 00:24:55;;;;;;;8.27;7.57;;;;;;;11.94;89.54;97898.59;4955072;28;20296;-70
2022/05/03 00:27:26;;;;;;;8.17;7.37;;;;;;;11.95;89.43;97894.91;4954668;28;20230;-70
2022/05/03 00:29:57;;;;;;;8.37;7.67;;;;;;;11.92;89.02;97896.16;4955038;28;20251;-70
2022/05/03 00:32:26;;;;;;;8.97;8.13;;;;;;;11.83;88.98;97886.91;4954987;28;20305;-70
2022/05/03 00:34:53;;;;;;;9.30;8.40;;;;;;;11.73;90.16;97892.00;4954631;28;20564;-70
2022/05/03 00:37:20;;;;;;;8.37;7.67;;;;;;;11.67;90.25;97887.56;4954872;28;20229;-69
2022/05/03 00:39:47;;;;;;;8.47;7.67;;;;;;;11.68;90.12;97891.03;4954971;28;20209;-70
2022/05/03 00:42:20;;;;;;;9.00;7.67;;;;;;;11.71;89.92;97888.72;4955366;29;20216;-70
2022/05/03 00:45:09;;;;;;;8.70;7.80;;;;;;;11.78;89.45;97888.63;4954914;28;20244;-70
2022/05/03 00:48:12;;;;;;;8.20;7.23;;;;;;;11.74;88.78;97893.59;4955173;28;20242;-70
2022/05/03 00:50:51;;;;;;;8.60;7.90;;;;;;;11.46;91.30;97892.59;4958223;29;20212;-70
2022/05/03 00:53:27;;;;;;;8.00;7.33;;;;;;;11.31;91.92;97893.03;4958187;28;20228;-70
2022/05/03 00:56:08;;;;;;;8.87;7.97;;;;;;;11.23;93.25;97899.47;4958206;28;20196;-70
2022/05/03 00:58:56;;;;;;;8.63;7.83;;;;;;;11.18;93.94;97896.69;4958056;29;20231;-70
2022/05/03 01:01:34;;;;;;;8.53;7.83;;;;;;;11.14;93.78;97897.38;4958087;29;20197;-71
2022/05/03 01:04:29;;;;;;;9.43;8.50;;;;;;;11.09;94.36;97883.94;4957721;29;20205;-70
2022/05/03 01:07:22;;;;;;;8.97;8.17;;;;;;;11.10;94.60;97886.34;4957969;28;20275;-70
2022/05/03 01:10:03;;;;;;;9.47;8.60;;;;;;;11.07;94.71;97889.47;4943207;29;20659;-70
2022/05/03 01:12:47;;;;;;;9.23;8.43;;;;;;;11.08;94.48;97895.59;4956750;29;20218;-70
2022/05/03 01:15:21;;;;;;;8.87;8.00;;;;;;;10.98;94.65;97896.16;4957857;28;20192;-70
2022/05/03 01:17:54;;;;;;;9.50;8.17;;;;;;;10.95;96.20;97893.94;4957795;28;20579;-70
2022/05/03 01:20:24;;;;;;;9.10;8.40;;;;;;;10.95;95.74;97893.13;4956631;29;20204;-70
2022/05/03 01:22:53;;;;;;;9.53;8.63;;;;;;;10.83;95.85;97890.44;4957664;29;20201;-70
2022/05/03 01:25:42;;;;;;;9.70;8.73;;;;;;;10.82;96.13;97891.44;4957354;29;20217;-70
2022/05/03 01:28:14;;;;;;;9.60;8.60;;;;;;;10.76;96.50;97887.03;4957500;29;20263;-70
2022/05/03 01:30:47;;;;;;;9.20;8.40;;;;;;;10.75;97.36;97888.06;4957555;29;20208;-70
2022/05/03 01:33:18;;;;;;;9.27;8.40;;;;;;;10.75;97.87;97889.91;4957173;28;20268;-70
2022/05/03 01:35:47;;;;;;;9.87;8.93;;;;;;;10.71;98.21;97880.75;4956562;29;20534;-70
2022/05/03 01:38:20;;;;;;;9.73;8.93;;;;;;;10.73;98.20;97876.81;4957400;28;20230;-70
2022/05/03 01:41:00;;;;;;;10.07;8.33;;;;;;;10.78;97.37;97879.63;4957170;28;20243;-70
2022/05/03 01:43:48;;;;;;;9.20;8.47;;;;;;;10.76;97.32;97880.88;4941355;29;20199;-70
2022/05/03 01:46:24;;;;;;;10.63;9.67;;;;;;;10.84;95.98;97875.28;4956378;29;20197;-70
2022/05/03 01:51:55;;;;;;;10.40;9.50;;;;;;;10.48;98.82;97884.09;4957220;29;20203;-70
2022/05/03 01:54:28;;;;;;;10.30;8.97;;;;;;;10.45;98.87;97889.06;4955968;29;20199;-70
2022/05/03 01:57:12;;;;;;;9.57;8.80;;;;;;;10.50;98.18;97883.88;4956991;29;20213;-70
2022/05/03 02:00:05;;;;;;;9.83;8.83;;;;;;;10.46;98.82;97890.69;4956233;28;20208;-70
2022/05/03 02:02:50;;;;;;;9.63;8.83;;;;;;;10.44;98.79;97879.44;4956576;29;20232;-70
2022/05/03 02:05:51;;;;;;;9.20;8.30;;;;;;;10.40;99.79;97876.44;4956937;29;20575;-71
2022/05/03 02:08:22;;;;;;;9.70;8.90;;;;;;;10.43;100.00;97875.16;4956868;28;20233;-70
2022/05/03 02:10:52;;;;;;;10.27;9.37;;;;;;;10.34;99.57;97876.50;4956822;28;20218;-71
2022/05/03 02:14:44;;;;;;;9.57;8.67;;;;;;;10.44;98.85;97890.06;4956681;28;20262;-70
2022/05/03 02:16:30;;;;;;;9.53;8.73;;;;;;;10.34;99.13;97879.97;4955331;29;20240;-70
2022/05/03 02:19:13;;;;;;;9.00;8.10;;;;;;;10.27;99.43;97883.75;4956363;28;20232;-70
2022/05/03 02:22:13;;;;;;;10.00;9.17;;;;;;;10.23;100.00;97886.00;4956598;28;20192;-70
2022/05/03 02:25:01;;;;;;;10.07;9.20;;;;;;;10.22;100.00;97879.06;4950806;29;20209;-70
2022/05/03 02:27:32;;;;;;;9.97;9.17;;;;;;;10.23;100.00;97882.56;4957015;28;20574;-70
2022/05/03 02:30:01;;;;;;;10.33;9.43;;;;;;;10.20;100.00;97877.69;4956501;28;20207;-70
2022/05/03 02:32:34;;;;;;;10.03;9.23;;;;;;;10.38;98.63;97883.00;4955248;29;20228;-70
2022/05/03 02:35:05;;;;;;;10.83;9.70;;;;;;;10.47;97.67;97885.16;4956138;28;20648;-70
2022/05/03 02:37:54;;;;;;;11.50;10.50;;;;;;;10.59;97.23;97879.91;4956306;28;20232;-70
2022/05/03 02:40:25;;;;;;;12.47;11.40;;;;;;;10.44;97.48;97885.59;4956663;28;20197;-70
2022/05/03 02:42:53;;;;;;;12.93;11.73;;;;;;;10.37;98.08;97879.50;4955993;28;20633;-71
2022/05/03 02:45:19;;;;;;;13.30;12.20;;;;;;;10.41;97.89;97877.25;4955894;28;20208;-70
2022/05/03 02:48:07;;;;;;;12.43;11.43;;;;;;;10.37;98.61;97876.06;4955730;29;20236;-70
2022/05/03 02:50:45;;;;;;;12.67;11.47;;;;;;;10.27;99.01;97873.13;4956098;28;20203;-70
2022/05/03 02:53:21;;;;;;;11.43;10.37;;;;;;;10.12;100.00;97875.31;4956028;28;20213;-70
2022/05/03 02:55:53;;;;;;;10.80;9.90;;;;;;;10.07;100.00;97880.47;4955792;28;20640;-70
2022/05/03 02:58:38;;;;;;;12.13;11.13;;;;;;;10.01;100.00;97874.16;4955891;28;20278;-70
2022/05/03 03:01:48;;;;;;;11.33;10.30;;;;;;;10.05;100.00;97870.06;4955985;28;20199;-70
2022/05/03 03:04:37;;;;;;;11.93;10.83;;;;;;;9.95;100.00;97866.25;4955887;28;20193;-70
2022/05/03 03:07:05;;;;;;;13.07;11.77;;;;;;;9.89;100.00;97875.09;4955781;28;20232;-70
2022/05/03 03:09:57;;;;;;;13.70;12.40;;;;;;;9.81;100.00;97862.09;4955819;28;20220;-70
2022/05/03 03:12:48;;;;;;;12.83;11.53;;;;;;;9.85;100.00;97865.94;4955615;28;20226;-70
2022/05/03 03:15:17;;;;;;;12.20;11.10;;;;;;;9.71;100.00;97873.22;4955426;28;20256;-70
2022/05/03 03:17:50;;;;;;;14.17;12.97;;;;;;;9.62;100.00;97876.34;4955316;28;20708;-70
2022/05/03 03:20:18;;;;;;;14.03;12.73;;;;;;;9.70;100.00;97873.44;4955681;29;20204;-70
2022/05/03 03:22:48;;;;;;;13.83;12.53;;;;;;;9.75;100.00;97878.91;4955348;28;20672;-70
2022/05/03 03:25:19;;;;;;;13.57;12.33;;;;;;;9.72;100.00;97884.63;4955568;29;20208;-70
2022/05/03 03:27:48;;;;;;;13.13;12.03;;;;;;;9.86;100.00;97873.69;4955492;28;20229;-70
2022/05/03 03:30:15;;;;;;;12.57;11.33;;;;;;;9.82;100.00;97874.38;4955536;28;20263;-70
2022/05/03 03:32:50;;;;;;;12.97;11.77;;;;;;;9.72;100.00;97881.97;4955272;29;20232;-70
2022/05/03 03:35:18;;;;;;;13.37;12.07;;;;;;;9.73;100.00;97879.13;4955246;29;20208;-70
2022/05/03 03:37:48;;;;;;;13.07;11.70;;;;;;;9.81;100.00;97886.81;4955368;28;20228;-70
2022/05/03 03:40:16;;;;;;;12.70;11.60;;;;;;;9.73;100.00;97875.66;4955404;29;20197;-70
2022/05/03 03:42:44;;;;;;;13.47;11.60;;;;;;;9.64;100.00;97879.63;4954951;29;20570;-70
2022/05/03 03:45:15;;;;;;;13.50;12.10;;;;;;;9.63;100.00;97877.97;4955097;28;20307;-70
2022/05/03 03:47:43;;;;;;;12.97;11.67;;;;;;;9.60;100.00;97886.38;4955063;29;20237;-70
2022/05/03 03:50:10;;;;;;;12.67;11.40;;;;;;;9.61;100.00;97882.69;4955953;29;20548;-70
2022/05/03 03:52:41;;;;;;;12.17;11.13;;;;;;;9.55;100.00;97884.38;4955215;28;20229;-70
2022/05/03 03:55:08;;;;;;;13.37;11.63;;;;;;;9.56;100.00;97882.53;4955281;29;20196;-70
2022/05/03 03:57:39;;;;;;;13.00;11.70;;;;;;;9.55;100.00;97883.56;4955186;28;20228;-70
2022/05/03 04:00:09;;;;;;;12.17;11.17;;;;;;;9.49;100.00;97881.75;4955229;29;20260;-70
2022/05/03 04:02:36;;;;;;;12.60;11.30;;;;;;;9.52;100.00;97876.03;4955628;29;20691;-70
2022/05/03 04:05:03;;;;;;;13.20;12.00;;;;;;;9.55;100.00;97872.97;4955071;29;20212;-70
2022/05/03 04:07:29;;;;;;;14.30;12.93;;;;;;;9.53;100.00;97875.00;4955093;28;20622;-70
2022/05/03 04:09:56;;;;;;;12.80;11.50;;;;;;;9.55;100.00;97873.75;4954843;28;20213;-70
2022/05/03 04:12:23;;;;;;;13.63;12.43;;;;;;;9.58;100.00;97872.50;4955058;29;20235;-70
2022/05/03 04:14:50;;;;;;;14.77;13.23;;;;;;;9.56;100.00;97872.72;4954776;29;20212;-70
2022/05/03 04:17:16;;;;;;;15.47;13.97;;;;;;;9.49;100.00;97871.16;4955300;29;20225;-70
2022/05/03 04:19:43;;;;;;;14.50;13.17;;;;;;;9.61;100.00;97877.41;4954952;28;20208;-70
2022/05/03 04:22:34;;;;;;;15.70;14.13;;;;;;;9.61;100.00;97872.09;4954623;28;20267;-70
2022/05/03 04:25:03;;;;;;;16.20;14.50;;;;;;;9.69;100.00;97882.44;4958695;29;20193;-70
2022/05/03 04:27:30;;;;;;;15.13;13.70;;;;;;;9.62;100.00;97876.34;4958593;28;20264;-70
2022/05/03 04:29:58;;;;;;;15.50;14.07;;;;;;;9.61;100.00;97878.22;4958540;29;20213;-70
2022/05/03 04:32:28;;;;;;;16.77;15.10;;;;;;;9.65;100.00;97875.94;4958312;29;20326;-70
2022/05/03 04:34:54;;;;;;;18.80;15.33;;;;;;;9.66;100.00;97870.41;4958383;29;20205;-70
2022/05/03 04:37:21;;;;;;;16.60;15.00;;;;;;;9.80;100.00;97881.72;4958004;28;20255;-70
2022/05/03 04:39:47;;;;;;;17.60;15.90;;;;;;;9.83;100.00;97883.94;4958790;29;20739;-70
2022/05/03 04:42:14;;;;;;;17.93;16.03;;;;;;;9.88;100.00;97887.56;4957973;29;20641;-70
2022/05/03 04:44:40;;;;;;;16.83;15.23;;;;;;;9.91;100.00;97894.28;4958080;28;20217;-70
2022/05/03 04:47:07;;;;;;;17.60;15.73;;;;;;;9.97;100.00;97898.72;4957956;29;20240;-70
2022/05/03 04:49:33;;;;;;;17.13;14.60;;;;;;;9.96;100.00;97902.41;4957856;29;20283;-70
2022/05/03 04:52:00;;;;;;;16.50;14.77;;;;;;;10.05;100.00;97909.09;4958124;28;20204;-70
2022/05/03 04:54:26;;;;;;;18.10;14.97;;;;;;;10.11;100.00;97911.69;4957938;28;20593;-70
2022/05/03 04:57:04;;;;;;;16.67;15.07;;;;;;;10.19;100.00;97911.38;4957953;29;20215;-70
2022/05/03 04:59:30;;;;;;;16.20;14.50;;;;;;;10.25;100.00;97913.19;4956766;29;20193;-70
2022/05/03 05:01:57;;;;;;;16.47;14.83;;;;;;;10.33;100.00;97925.38;4957549;28;20255;-70
2022/05/03 05:04:23;;;;;;;15.67;14.17;;;;;;;10.42;100.00;97927.50;4957822;29;20207;-70
2022/05/03 05:06:50;;;;;;;15.60;13.93;;;;;;;10.49;100.00;97930.91;4957488;29;20695;-70
2022/05/03 05:09:17;;;;;;;15.53;14.10;;;;;;;10.54;100.00;97924.94;4957715;29;20240;-70
2022/05/03 05:11:43;;;;;;;16.20;14.37;;;;;;;10.64;100.00;97920.72;4956962;28;20208;-70
2022/05/03 05:14:09;;;;;;;15.67;14.13;;;;;;;10.68;100.00;97929.88;4957309;29;20225;-70
2022/05/03 05:16:36;;;;;;;15.10;13.57;;;;;;;10.71;100.00;97912.66;4957438;29;20573;-70
2022/05/03 05:19:03;;;;;;;14.40;13.10;;;;;;;10.83;100.00;97921.53;4957255;29;20263;-70
2022/05/03 05:21:29;;;;;;;14.83;13.40;;;;;;;10.89;99.87;97923.28;4957205;28;20212;-70
2022/05/03 05:23:55;;;;;;;16.53;14.53;;;;;;;10.98;99.74;97927.25;4957517;29;20208;-70
2022/05/03 05:26:22;;;;;;;16.60;15.00;;;;;;;11.04;98.81;97924.50;4957551;29;20218;-70
2022/05/03 05:28:48;;;;;;;16.53;14.93;;;;;;;11.28;97.59;97926.22;4957322;29;20231;-70
2022/05/03 05:31:15;;;;;;;17.23;15.53;;;;;;;11.29;96.61;97927.03;4957349;28;20205;-70
2022/05/03 05:33:41;;;;;;;17.20;15.47;;;;;;;11.36;96.95;97921.63;4956397;28;20224;-70
2022/05/03 05:36:07;;;;;;;16.97;15.50;;;;;;;11.24;96.64;97929.56;4956470;29;20204;-69
2022/05/03 05:38:34;;;;;;;16.77;14.50;;;;;;;11.34;96.42;97932.50;4956891;28;20235;-70
2022/05/03 05:41:11;;;;;;;17.67;14.40;;;;;;;11.44;94.40;97927.41;4956310;29;20208;-70
2022/05/03 05:43:37;;;;;;;19.77;15.80;;;;;;;11.50;94.60;97934.53;4956618;29;20193;-70
2022/05/03 05:46:04;;;;;;;15.90;14.30;;;;;;;11.57;95.35;97931.75;4956953;28;20212;-70
2022/05/03 05:48:30;;;;;;;18.50;14.97;;;;;;;11.61;94.64;97930.31;4956381;28;20246;-70
2022/05/03 05:50:56;;;;;;;16.50;14.83;;;;;;;11.64;94.49;97930.66;4956522;29;20215;-70
2022/05/03 05:53:34;;;;;;;16.80;14.53;;;;;;;11.67;93.42;97935.50;4956302;29;20232;-70
2022/05/03 05:56:05;;;;;;;18.13;14.93;;;;;;;11.80;93.16;97939.81;4956775;28;20197;-70
2022/05/03 05:58:32;;;;;;;17.37;14.87;;;;;;;11.81;92.38;97939.59;4956667;28;20229;-70
2022/05/03 06:00:58;;;;;;;16.33;14.73;;;;;;;11.99;91.43;97939.50;4956272;28;20736;-70
2022/05/03 06:03:27;;;;;;;19.10;14.60;;;;;;;12.03;90.68;97939.84;4956575;29;20202;-70
2022/05/03 06:05:54;;;;;;;16.33;14.83;;;;;;;11.94;90.85;97950.00;4956300;28;20214;-70
2022/05/03 06:08:21;;;;;;;16.00;14.20;;;;;;;12.00;90.90;97946.47;4955887;29;20735;-70
2022/05/03 06:10:49;;;;;;;17.13;15.30;;;;;;;12.01;89.98;97949.91;4956436;29;20222;-70
2022/05/03 06:13:15;;;;;;;18.40;15.40;;;;;;;12.17;90.57;97946.56;4956842;28;20230;-70
2022/05/03 06:15:42;;;;;;;17.17;14.60;;;;;;;12.26;89.77;97943.31;4956432;29;20214;-70
2022/05/03 06:18:10;;;;;;;17.47;14.33;;;;;;;12.24;89.44;97940.09;4955880;29;20242;-69
2022/05/03 06:20:37;;;;;;;16.37;14.73;;;;;;;12.33;88.96;97952.03;4955898;29;20669;-69
2022/05/03 06:23:04;;;;;;;17.27;14.37;;;;;;;12.41;88.30;97935.69;4955795;28;20219;-70
2022/05/03 06:25:31;;;;;;;16.43;14.73;;;;;;;12.42;87.65;97945.28;4955688;29;20674;-70
2022/05/03 06:27:57;;;;;;;17.07;15.37;;;;;;;12.50;87.20;97944.94;4956144;29;20237;-69
2022/05/03 06:30:24;;;;;;;16.13;14.40;;;;;;;12.89;85.92;97938.81;4956059;28;20219;-70
2022/05/03 06:32:50;;;;;;;16.30;14.87;;;;;;;12.83;86.00;97942.44;4958075;28;20230;-70
2022/05/03 06:35:16;;;;;;;16.13;14.27;;;;;;;12.91;84.70;97941.25;4974684;28;20243;-70
2022/05/03 06:37:43;;;;;;;15.70;14.10;;;;;;;13.16;84.04;97939.94;4974866;28;20239;-70
2022/05/03 06:40:11;;;;;;;15.20;13.70;;;;;;;13.09;84.13;97941.94;4971659;28;20659;-70
2022/05/03 06:42:39;;;;;;;15.87;13.50;;;;;;;13.08;84.54;97940.34;4955835;28;20574;-70
2022/05/03 06:45:07;;;;;;;15.33;13.73;;;;;;;13.11;84.00;97949.72;4955364;28;20575;-70
2022/05/03 06:47:33;;;;;;;16.73;14.97;;;;;;;13.35;84.39;97949.41;4955310;28;20613;-70
2022/05/03 06:49:59;;;;;;;15.43;13.80;;;;;;;13.68;80.38;97953.97;4955232;29;20753;-70
2022/05/03 06:52:27;;;;;;;14.93;13.60;;;;;;;13.59;82.37;97945.56;4955525;29;20205;-70
2022/05/03 06:54:54;;;;;;;13.93;12.73;;;;;;;13.48;80.86;97946.41;4956069;29;20331;-69
2022/05/03 06:57:20;;;;;;;13.67;12.30;;;;;;;13.54;80.77;97947.31;4955684;28;20227;-70
2022/05/03 06:59:46;;;;;;;13.80;12.50;;;;;;;13.61;81.10;97943.44;4955770;29;20208;-70
2022/05/03 07:02:13;;;;;;;15.10;13.60;;;;;;;13.96;80.10;97949.41;4955540;29;20216;-70
2022/05/03 07:04:39;;;;;;;15.37;13.20;;;;;;;13.95;80.40;97936.28;4955308;29;20208;-70
2022/05/03 07:07:06;;;;;;;13.87;12.03;;;;;;;14.25;78.89;97942.94;4955507;28;20224;-70
2022/05/03 07:09:32;;;;;;;13.03;11.93;;;;;;;14.20;76.80;97948.19;4955566;29;20218;-70
2022/05/03 07:11:58;;;;;;;13.47;12.13;;;;;;;14.10;77.60;97950.69;4955470;29;20216;-70
2022/05/03 07:14:25;;;;;;;13.63;12.20;;;;;;;14.23;78.36;97953.06;4955828;29;20224;-70
2022/05/03 07:16:51;;;;;;;12.67;11.47;;;;;;;14.35;76.86;97953.81;4955414;28;20234;-70
2022/05/03 07:24:46;;;;;;;14.27;12.93;;;;;;;14.59;76.09;97955.22;4955173;29;20296;-70
2022/05/03 07:27:13;;;;;;;12.27;11.27;;;;;;;14.77;75.05;97962.13;4955295;28;20232;-71
2022/05/03 07:29:40;;;;;;;11.97;10.77;;;;;;;14.96;71.42;97968.81;4955052;29;20234;-70
2022/05/03 07:32:06;;;;;;;8.90;8.10;;;;;;;14.85;70.76;97959.03;4954866;28;20259;-71
2022/05/03 07:34:33;;;;;;;9.67;8.67;;;;;;;14.76;70.79;97969.38;4954850;29;20235;-71
2022/05/03 07:36:59;;;;;;;10.10;9.10;;;;;;;14.93;70.51;97969.31;4954860;28;20567;-70
2022/05/03 07:39:25;;;;;;;9.87;8.93;;;;;;;15.08;70.03;97969.50;4955056;29;20225;-70
2022/05/03 07:41:53;;;;;;;10.07;9.17;;;;;;;15.12;69.53;97971.44;4954712;29;20209;-70
2022/05/03 07:44:20;;;;;;;9.97;9.07;;;;;;;15.33;67.65;97970.59;4954572;29;20291;-70
2022/05/03 07:46:46;;;;;;;10.50;9.37;;;;;;;15.35;68.93;97983.78;4954670;28;20215;-71
2022/05/03 07:49:13;;;;;;;12.27;9.70;;;;;;;15.36;70.02;97972.00;4954669;29;20216;-71
2022/05/03 07:51:42;;;;;;;10.30;9.40;;;;;;;15.35;70.16;97976.56;4954732;29;20567;-71
2022/05/03 07:54:10;;;;;;;14.40;10.13;;;;;;;15.41;69.69;97972.88;4955036;29;20296;-70
2022/05/03 07:56:37;;;;;;;11.47;9.50;;;;;;;15.86;69.11;97978.69;4954645;28;20209;-71
2022/05/03 07:59:06;;;;;;;9.97;8.57;;;;;;;16.00;67.17;97984.44;4957561;28;20287;-70
2022/05/03 08:01:33;;;;;;;9.53;8.73;;;;;;;15.94;67.54;97977.41;4958757;29;20221;-70
2022/05/03 08:03:59;;;;;;;10.50;9.53;;;;;;;15.78;68.97;97976.47;4958812;29;20201;-70
2022/05/03 08:06:27;;;;;;;9.90;8.87;;;;;;;15.70;66.10;97979.59;4958754;29;20219;-70
2022/05/03 08:08:53;;;;;;;12.50;9.77;;;;;;;15.88;68.79;97981.91;4958776;28;20231;-70
2022/05/03 08:11:19;;;;;;;9.80;8.80;;;;;;;15.95;68.87;97979.84;4958600;29;20211;-70
2022/05/03 08:13:48;;;;;;;8.97;8.07;;;;;;;16.11;65.15;97986.94;4958180;29;20699;-70
2022/05/03 08:16:19;;;;;;;8.93;8.10;;;;;;;16.18;64.21;97984.88;4958435;29;20214;-70
2022/05/03 08:18:45;;;;;;;10.17;9.20;;;;;;;15.84;65.93;97980.81;4958368;28;20242;-70
2022/05/03 08:21:12;;;;;;;9.23;8.33;;;;;;;16.24;66.14;97981.16;4958103;29;20587;-70
2022/05/03 08:23:39;;;;;;;9.70;8.80;;;;;;;16.73;64.48;97987.97;4958205;29;20719;-70
2022/05/03 08:26:06;;;;;;;10.77;8.90;;;;;;;16.94;66.45;97976.31;4958429;29;20215;-70
2022/05/03 08:28:33;;;;;;;9.67;8.77;;;;;;;16.74;63.62;97986.91;4957861;28;20236;-70
2022/05/03 08:31:00;;;;;;;9.03;8.27;;;;;;;15.81;65.80;97986.69;4958210;28;20213;-70
2022/05/03 08:33:28;;;;;;;10.17;9.13;;;;;;;15.76;65.09;97983.97;4958083;28;20224;-70
2022/05/03 08:35:54;;;;;;;9.70;7.83;;;;;;;16.04;65.47;97990.91;4957704;29;20208;-70
2022/05/03 08:43:48;;;;;;;7.23;6.53;;;;;;;16.78;62.47;97990.69;4958205;29;20176;-70
2022/05/03 08:46:17;;;;;;;6.20;5.70;;;;;;;16.98;59.80;97982.78;4956753;29;20671;-70
2022/05/03 08:48:44;;;;;;;5.93;4.60;;;;;;;17.14;61.53;97987.13;4957528;28;20245;-70
2022/05/03 08:51:16;;;;;;;6.17;5.67;;;;;;;17.28;59.58;97984.78;4957817;29;20208;-71
2022/05/03 08:53:43;;;;;;;6.23;5.63;;;;;;;17.33;60.85;97980.22;4956965;29;20213;-70
2022/05/03 08:56:10;;;;;;;7.00;6.40;;;;;;;17.60;59.79;97980.88;4958044;29;20209;-70
2022/05/03 08:58:36;;;;;;;7.20;6.47;;;;;;;17.48;58.92;97984.88;4957962;28;20228;-70
2022/05/03 09:01:03;;;;;;;7.33;5.93;;;;;;;17.49;61.07;97990.00;4957448;29;20241;-70
2022/05/03 09:03:30;;;;;;;6.27;5.70;;;;;;;17.47;56.18;97992.13;4957871;28;20213;-70
2022/05/03 09:05:57;;;;;;;5.20;4.80;;;;;;;17.59;56.49;97981.94;4957840;29;20214;-70
2022/05/03 09:08:24;;;;;;;4.60;4.30;;;;;;;17.77;57.03;97986.81;4957471;28;20236;-70
2022/05/03 09:10:51;;;;;;;5.23;4.50;;;;;;;17.79;56.30;97989.25;4957815;29;20259;-70
2022/05/03 09:13:22;;;;;;;4.40;4.10;;;;;;;17.64;57.53;97978.47;4957564;28;20216;-70
2022/05/03 09:15:51;;;;;;;4.30;3.90;;;;;;;17.92;56.72;97980.66;4957159;29;20252;-70
2022/05/03 09:18:26;;;;;;;5.07;4.23;;;;;;;18.26;55.97;97977.19;4957334;28;20228;-71
2022/05/03 09:23:50;;;;;;;3.90;3.20;;;;;;;18.32;52.54;97978.00;4957710;29;20176;-70
2022/05/03 09:26:17;;;;;;;2.73;2.53;;;;;;;18.17;50.81;97978.00;4957530;29;20207;-70
2022/05/03 09:28:48;;;;;;;3.67;2.20;;;;;;;18.45;46.24;97983.66;4957093;28;20287;-70
2022/05/03 09:31:40;;;;;;;2.40;2.10;;;;;;;18.42;46.97;97968.03;4957108;29;20192;-70
2022/05/03 09:34:23;;;;;;;2.33;2.03;;;;;;;18.47;47.19;97973.44;4957229;28;20220;-70
2022/05/03 09:36:51;;;;;;;2.43;2.23;;;;;;;18.33;49.70;97972.34;4957269;28;20296;-70
2022/05/03 09:39:23;;;;;;;5.33;2.70;;;;;;;18.38;47.54;97974.25;4957342;28;20205;-70
2022/05/03 09:42:15;;;;;;;4.27;2.70;;;;;;;18.71;49.77;97977.19;4957110;29;20263;-70
2022/05/03 09:44:55;;;;;;;4.73;2.90;;;;;;;18.45;48.71;97972.91;4956707;28;20301;-70
2022/05/03 09:47:27;;;;;;;2.90;2.70;;;;;;;18.66;50.85;97970.97;4956530;28;20232;-70
2022/05/03 09:49:54;;;;;;;3.13;2.67;;;;;;;18.84;49.56;97963.16;4956654;28;20204;-70
2022/05/03 09:52:31;;;;;;;2.93;2.73;;;;;;;19.24;47.61;97968.44;4956355;28;20215;-70
2022/05/03 09:55:04;;;;;;;3.43;2.73;;;;;;;19.21;48.39;97963.56;4956775;29;20226;-70
2022/05/03 09:57:32;;;;;;;3.60;2.60;;;;;;;19.42;47.42;97967.00;4956693;28;20228;-70
2022/05/03 09:59:59;;;;;;;3.37;2.70;;;;;;;19.22;48.95;97957.09;4956289;28;20219;-71
2022/05/03 10:02:27;;;;;;;4.03;2.90;;;;;;;19.48;49.41;97957.00;4956679;28;20209;-70
2022/05/03 10:04:57;;;;;;;3.30;2.93;;;;;;;19.46;47.73;97958.06;4956547;28;20212;-70
2022/05/03 10:07:29;;;;;;;4.63;3.17;;;;;;;19.50;48.90;97961.81;4956513;28;20232;-70
2022/05/03 10:09:55;;;;;;;3.67;3.30;;;;;;;18.25;49.08;97961.31;4956663;28;20208;-70
2022/05/03 10:12:22;;;;;;;5.20;3.20;;;;;;;19.36;49.97;97958.13;4957102;29;20687;-70
2022/05/03 10:14:49;;;;;;;3.40;3.13;;;;;;;19.09;48.62;97957.66;4956443;29;20232;-70
2022/05/03 10:20:42;;;;;;;4.50;3.00;;;;;;;18.26;49.54;97947.59;4955797;28;20176;-70
2022/05/03 10:23:23;;;;;;;5.57;3.10;;;;;;;18.28;48.69;97948.09;4949093;29;20279;-70
2022/05/03 10:25:54;;;;;;;3.80;3.07;;;;;;;18.61;51.20;97938.69;4956413;28;20234;-70
2022/05/03 10:28:21;;;;;;;3.00;2.80;;;;;;;18.96;50.24;97941.28;4955877;28;20244;-70
2022/05/03 10:31:05;;;;;;;3.30;2.97;;;;;;;18.71;50.96;97944.84;4956260;29;20301;-70
2022/05/03 10:33:31;;;;;;;4.87;3.03;;;;;;;18.99;47.72;97946.09;4955792;29;20219;-70
2022/05/03 10:36:02;;;;;;;3.70;3.40;;;;;;;19.14;50.58;97933.38;4955688;29;20218;-71
2022/05/03 10:39:03;;;;;;;3.33;2.93;;;;;;;19.46;48.27;97933.00;4955943;28;20229;-70
2022/05/03 10:41:30;;;;;;;3.20;3.00;;;;;;;19.30;48.48;97921.50;4956033;28;20205;-70
2022/05/03 10:43:56;;;;;;;3.93;3.63;;;;;;;18.86;47.76;97925.94;4955674;28;20668;-70
2022/05/03 10:46:24;;;;;;;3.97;3.57;;;;;;;19.03;50.94;97929.13;4955873;29;20209;-71
2022/05/03 10:49:20;;;;;;;4.00;3.50;;;;;;;19.60;49.69;97925.91;4955477;28;20243;-71
2022/05/03 10:51:46;;;;;;;3.57;3.13;;;;;;;19.90;49.47;97930.28;4942493;29;20212;-71
2022/05/03 10:54:13;;;;;;;3.60;3.30;;;;;;;19.88;48.52;97933.25;4955618;28;20231;-71
2022/05/03 10:57:01;;;;;;;3.27;3.00;;;;;;;19.52;47.91;97919.22;4955270;29;20218;-70
2022/05/03 10:59:47;;;;;;;3.50;3.20;;;;;;;19.76;46.04;97921.22;4955736;29;20233;-70
2022/05/03 11:02:13;;;;;;;3.50;3.20;;;;;;;19.86;48.18;97921.94;4955699;29;20216;-71
2022/05/03 11:05:18;;;;;;;4.10;3.77;;;;;;;20.02;48.54;97917.25;4955744;29;20583;-71
2022/05/03 11:08:22;;;;;;;4.97;4.10;;;;;;;19.99;48.63;97910.50;4955577;28;20243;-71
2022/05/03 11:10:48;;;;;;;4.97;4.47;;;;;;;20.13;47.08;97914.22;4955519;29;20185;-71
2022/05/03 11:13:37;;;;;;;4.10;3.70;;;;;;;19.88;46.46;97916.25;4955043;29;20699;-71
2022/05/03 11:16:27;;;;;;;5.27;3.90;;;;;;;19.88;45.92;97900.06;4955008;29;20239;-70
2022/05/03 11:18:56;;;;;;;5.13;4.20;;;;;;;19.53;45.72;97903.81;4955845;28;20275;-70
2022/05/03 11:21:22;;;;;;;5.43;5.00;;;;;;;19.49;46.63;97892.78;4955172;29;20687;-71
2022/05/03 11:23:53;;;;;;;4.47;3.97;;;;;;;19.78;47.72;97890.16;4955119;29;20679;-71
2022/05/03 11:26:23;;;;;;;5.30;4.80;;;;;;;19.51;48.46;97895.22;4955441;28;20215;-71
2022/05/03 11:28:51;;;;;;;5.23;4.40;;;;;;;19.83;48.80;97890.13;4954973;28;20231;-71
2022/05/03 11:31:20;;;;;;;5.03;4.63;;;;;;;20.04;47.83;97878.09;4954920;29;20699;-71
2022/05/03 11:33:56;;;;;;;5.27;4.80;;;;;;;20.22;46.80;97879.31;4955126;29;20213;-71
2022/05/03 11:36:23;;;;;;;4.57;4.20;;;;;;;20.39;47.67;97879.69;4955325;29;20193;-71
2022/05/03 11:38:56;;;;;;;5.40;4.97;;;;;;;20.77;46.03;97868.72;4954693;28;20807;-71
2022/05/03 11:41:23;;;;;;;4.73;4.37;;;;;;;20.42;46.51;97871.00;4955093;28;20201;-71
2022/05/03 11:43:50;;;;;;;4.80;4.40;;;;;;;20.37;46.51;97869.16;4954740;29;20698;-71
2022/05/03 11:46:18;;;;;;;6.20;3.87;;;;;;;20.48;46.65;97867.94;4955183;29;20208;-71
2022/05/03 11:48:45;;;;;;;5.07;4.27;;;;;;;20.12;47.22;97874.78;4954682;28;20239;-71
2022/05/03 11:56:46;;;;;;;4.50;4.10;;;;;;;20.59;43.74;97861.38;4954850;28;20196;-71
2022/05/03 11:59:14;;;;;;;5.23;4.20;;;;;;;20.50;46.89;97854.16;4955203;28;20215;-71
2022/05/03 12:01:41;;;;;;;6.13;5.63;;;;;;;20.76;48.96;97848.16;4955165;28;20212;-71
2022/05/03 12:04:08;;;;;;;7.47;4.93;;;;;;;21.20;47.16;97850.63;4955133;28;20213;-71
2022/05/03 12:06:44;;;;;;;5.07;4.67;;;;;;;20.73;46.30;97854.19;4955140;29;20314;-71
2022/05/03 12:09:12;;;;;;;5.70;4.53;;;;;;;20.61;46.81;97861.09;4954825;28;20698;-71
2022/05/03 12:12:42;;;;;;;4.87;4.57;;;;;;;20.54;47.33;97856.03;4955034;29;20231;-70